Time;durP1;ratioP1;P1;durP2;ratioP2;P2;SDS_P1;SDS_P2;PMS_P1;PMS_P2;Temp;Humidity;BMP_temperature;BMP_pressure;BME280_temperature;BME280_humidity;BME280_pressure;Samples;Min_cycle;Max_cycle;Signal;HPM_P1;HPM_P2
2024/03/29 00:00:37;;;;;;;3.33;0.75;;;;;;;;;;5028725;28;20592;-79
2024/03/29 00:03:03;;;;;;;3.63;0.70;;;;;;;;;;5051667;28;20040;-79
2024/03/29 00:05:29;;;;;;;2.25;0.80;;;;;;;;;;5032289;28;20025;-79
2024/03/29 00:07:54;;;;;;;2.30;0.60;;;;;;;;;;5052131;28;20383;-78
2024/03/29 00:10:20;;;;;;;4.47;0.57;;;;;;;;;;5047914;28;20029;-79
2024/03/29 00:12:45;;;;;;;4.88;0.63;;;;;;;;;;5032867;28;20025;-78
2024/03/29 00:15:10;;;;;;;5.80;0.68;;;;;;;;;;5033961;28;20474;-85
2024/03/29 00:17:36;;;;;;;3.20;0.65;;;;;;;;;;5033668;28;20123;-86
2024/03/29 00:20:02;;;;;;;3.75;0.75;;;;;;;;;;5046824;28;20497;-87
2024/03/29 00:22:28;;;;;;;3.53;0.70;;;;;;;;;;5053193;28;20024;-86
2024/03/29 00:24:53;;;;;;;4.90;0.88;;;;;;;;;;5033748;28;20033;-87
2024/03/29 00:27:19;;;;;;;3.97;0.60;;;;;;;;;;5040379;28;20029;-87
2024/03/29 00:29:46;;;;;;;1.73;0.50;;;;;;;;;;5032256;28;20029;-86
2024/03/29 00:32:12;;;;;;;4.32;0.73;;;;;;;;;;5042425;28;20017;-85
2024/03/29 00:34:37;;;;;;;4.65;1.13;;;;;;;;;;5020761;28;20037;-86
2024/03/29 00:37:03;;;;;;;7.20;0.90;;;;;;;;;;5050993;28;20017;-87
2024/03/29 00:39:29;;;;;;;2.75;0.80;;;;;;;;;;5028721;28;20079;-85
2024/03/29 00:41:54;;;;;;;2.35;0.50;;;;;;;;;;5050546;28;20414;-85
2024/03/29 00:44:20;;;;;;;3.25;0.70;;;;;;;;;;5042692;28;20025;-86
2024/03/29 00:46:45;;;;;;;2.72;0.60;;;;;;;;;;5031286;28;20021;-87
2024/03/29 00:49:10;;;;;;;2.97;0.60;;;;;;;;;;5024589;28;20026;-87
2024/03/29 00:51:36;;;;;;;3.05;0.50;;;;;;;;;;5041813;28;20055;-86
2024/03/29 00:54:01;;;;;;;2.72;0.80;;;;;;;;;;5047907;28;20021;-85
2024/03/29 00:56:27;;;;;;;3.25;0.55;;;;;;;;;;5043467;28;20025;-85
2024/03/29 00:58:52;;;;;;;3.30;0.65;;;;;;;;;;5046386;28;20495;-86
2024/03/29 01:01:18;;;;;;;0.95;0.43;;;;;;;;;;5049314;28;20106;-86
2024/03/29 01:03:43;;;;;;;2.90;0.60;;;;;;;;;;5050774;28;20036;-86
2024/03/29 01:06:08;;;;;;;2.10;0.57;;;;;;;;;;5035230;28;20467;-87
2024/03/29 01:08:34;;;;;;;3.70;0.90;;;;;;;;;;5034094;28;20025;-87
2024/03/29 01:10:59;;;;;;;3.50;0.57;;;;;;;;;;5022411;28;20473;-85
2024/03/29 01:13:24;;;;;;;2.55;0.57;;;;;;;;;;5029861;28;20026;-86
2024/03/29 01:15:50;;;;;;;2.22;0.70;;;;;;;;;;5029703;28;20024;-86
2024/03/29 01:18:15;;;;;;;3.25;0.70;;;;;;;;;;5028321;28;20021;-85
2024/03/29 01:20:41;;;;;;;1.10;0.50;;;;;;;;;;5044074;28;20029;-88
2024/03/29 01:23:07;;;;;;;2.65;0.88;;;;;;;;;;5047020;28;20056;-86
2024/03/29 01:25:33;;;;;;;2.92;0.57;;;;;;;;;;5047515;28;20367;-78
2024/03/29 01:27:59;;;;;;;1.88;0.50;;;;;;;;;;5032559;28;20115;-79
2024/03/29 01:30:24;;;;;;;1.58;0.50;;;;;;;;;;5030066;28;20566;-78
2024/03/29 01:32:49;;;;;;;1.50;0.50;;;;;;;;;;5031566;28;20032;-78
2024/03/29 01:35:15;;;;;;;4.90;1.00;;;;;;;;;;5032761;28;20029;-79
2024/03/29 01:37:41;;;;;;;2.75;0.63;;;;;;;;;;5031489;28;20120;-78
2024/03/29 01:40:07;;;;;;;4.03;0.88;;;;;;;;;;5030583;28;20119;-78
2024/03/29 01:42:33;;;;;;;0.90;0.60;;;;;;;;;;5046484;28;20418;-78
2024/03/29 01:44:59;;;;;;;3.95;0.60;;;;;;;;;;5044695;28;20033;-79
2024/03/29 01:47:25;;;;;;;5.43;0.80;;;;;;;;;;5048148;28;20116;-79
2024/03/29 01:49:50;;;;;;;5.50;0.95;;;;;;;;;;5047692;28;20440;-79
2024/03/29 01:52:17;;;;;;;1.67;0.50;;;;;;;;;;5030815;28;20043;-79
2024/03/29 01:54:44;;;;;;;2.00;0.60;;;;;;;;;;5046111;28;20025;-79
2024/03/29 01:57:10;;;;;;;3.30;0.65;;;;;;;;;;5030023;28;20485;-79
2024/03/29 01:59:37;;;;;;;1.13;0.45;;;;;;;;;;5030926;28;20033;-78
2024/03/29 02:02:02;;;;;;;3.10;0.80;;;;;;;;;;5031178;28;20017;-86
2024/03/29 02:04:28;;;;;;;2.95;0.68;;;;;;;;;;5074618;22;20067;-80
2024/03/29 02:06:54;;;;;;;3.25;0.90;;;;;;;;;;5049534;28;20036;-79
2024/03/29 02:09:19;;;;;;;3.75;0.55;;;;;;;;;;5065592;28;20848;-79
2024/03/29 02:11:46;;;;;;;2.50;0.82;;;;;;;;;;5068453;28;20539;-80
2024/03/29 02:14:11;;;;;;;2.42;0.57;;;;;;;;;;5069066;28;20082;-79
2024/03/29 02:16:38;;;;;;;2.97;0.60;;;;;;;;;;5068988;28;20029;-79
2024/03/29 02:19:03;;;;;;;1.35;0.50;;;;;;;;;;5067707;28;20502;-80
2024/03/29 02:21:33;;;;;;;1.85;0.52;;;;;;;;;;5049941;28;20059;-80
2024/03/29 02:24:11;;;;;;;3.38;0.52;;;;;;;;;;5068109;28;20038;-80
2024/03/29 02:26:41;;;;;;;4.18;0.65;;;;;;;;;;5048332;28;20033;-80
2024/03/29 02:29:06;;;;;;;1.38;0.55;;;;;;;;;;5051449;28;20414;-80
2024/03/29 02:31:32;;;;;;;3.10;0.60;;;;;;;;;;5051083;28;20035;-80
2024/03/29 02:33:57;;;;;;;2.70;0.70;;;;;;;;;;5052668;28;20056;-80
2024/03/29 02:36:23;;;;;;;4.68;0.80;;;;;;;;;;5053689;28;20029;-80
2024/03/29 02:38:48;;;;;;;3.22;0.70;;;;;;;;;;5053924;28;20032;-80
2024/03/29 02:41:14;;;;;;;3.63;0.70;;;;;;;;;;5053961;28;20387;-81
2024/03/29 02:43:39;;;;;;;1.95;0.52;;;;;;;;;;5052932;28;20944;-80
2024/03/29 02:46:05;;;;;;;3.08;0.73;;;;;;;;;;5048959;28;20035;-80
2024/03/29 02:48:30;;;;;;;1.67;0.60;;;;;;;;;;5051643;28;20055;-80
2024/03/29 02:50:56;;;;;;;2.55;0.50;;;;;;;;;;5049473;28;20028;-80
2024/03/29 02:53:21;;;;;;;1.73;0.75;;;;;;;;;;5050058;28;20035;-80
2024/03/29 02:55:47;;;;;;;2.55;0.50;;;;;;;;;;5052858;28;20020;-80
2024/03/29 02:58:12;;;;;;;2.55;0.68;;;;;;;;;;5053997;28;20249;-80
2024/03/29 03:00:38;;;;;;;2.90;1.00;;;;;;;;;;5053237;28;20063;-81
2024/03/29 03:03:03;;;;;;;3.58;0.80;;;;;;;;;;5050516;28;20475;-80
2024/03/29 03:05:30;;;;;;;3.25;0.63;;;;;;;;;;5055341;28;20029;-85
2024/03/29 03:10:56;;;;;;;2.15;0.70;;;;;;;;;;5058766;28;20067;-85
2024/03/29 03:13:21;;;;;;;1.90;0.60;;;;;;;;;;5039727;28;20053;-81
2024/03/29 03:15:47;;;;;;;2.88;0.63;;;;;;;;;;5039766;28;20455;-80
2024/03/29 03:18:13;;;;;;;3.45;0.77;;;;;;;;;;5055523;28;20029;-80
2024/03/29 03:20:39;;;;;;;1.95;0.60;;;;;;;;;;5040354;28;20066;-81
2024/03/29 03:23:05;;;;;;;3.33;0.60;;;;;;;;;;5042162;28;20033;-81
2024/03/29 03:25:30;;;;;;;2.58;0.55;;;;;;;;;;5041179;28;20033;-81
2024/03/29 03:27:55;;;;;;;2.83;0.80;;;;;;;;;;5038450;28;20024;-81
2024/03/29 03:30:22;;;;;;;2.78;0.60;;;;;;;;;;5039582;28;20115;-80
2024/03/29 03:32:47;;;;;;;4.20;0.60;;;;;;;;;;5038032;28;20036;-79
2024/03/29 03:35:13;;;;;;;1.90;0.75;;;;;;;;;;5054988;28;20429;-80
2024/03/29 03:37:39;;;;;;;2.10;0.68;;;;;;;;;;5037145;28;20064;-79
2024/03/29 03:40:06;;;;;;;3.80;0.55;;;;;;;;;;5054526;28;20028;-79
2024/03/29 03:42:32;;;;;;;3.67;0.60;;;;;;;;;;5058109;28;20135;-79
2024/03/29 03:44:57;;;;;;;1.70;0.57;;;;;;;;;;5038995;28;20127;-79
2024/03/29 03:47:22;;;;;;;1.55;0.32;;;;;;;;;;5057833;28;20032;-81
2024/03/29 03:49:48;;;;;;;3.83;0.52;;;;;;;;;;5058051;28;20120;-80
2024/03/29 03:52:13;;;;;;;1.98;0.40;;;;;;;;;;5041522;28;20031;-79
2024/03/29 03:54:39;;;;;;;2.05;0.45;;;;;;;;;;5037053;28;20024;-79
2024/03/29 03:57:05;;;;;;;1.55;0.45;;;;;;;;;;5042311;28;20028;-80
2024/03/29 03:59:30;;;;;;;1.65;0.40;;;;;;;;;;5037695;28;20028;-79
2024/03/29 04:01:56;;;;;;;1.50;0.43;;;;;;;;;;5058453;28;20024;-79
2024/03/29 04:04:21;;;;;;;5.47;0.50;;;;;;;;;;5055650;28;20123;-79
2024/03/29 04:06:46;;;;;;;1.92;0.40;;;;;;;;;;5059100;28;20028;-80
2024/03/29 04:09:15;;;;;;;1.85;0.45;;;;;;;;;;5036675;28;20026;-79
2024/03/29 04:11:41;;;;;;;1.25;0.35;;;;;;;;;;5037689;28;20032;-79
2024/03/29 04:14:07;;;;;;;2.35;0.50;;;;;;;;;;5040572;28;20472;-81
2024/03/29 04:16:32;;;;;;;1.20;0.60;;;;;;;;;;5037978;28;20032;-79
2024/03/29 04:18:58;;;;;;;2.22;0.60;;;;;;;;;;5041929;28;20025;-79
2024/03/29 04:21:23;;;;;;;1.67;0.50;;;;;;;;;;5040121;28;20046;-79
2024/03/29 04:23:49;;;;;;;1.88;0.55;;;;;;;;;;5042138;28;20780;-79
2024/03/29 04:26:14;;;;;;;1.63;0.40;;;;;;;;;;5036869;28;20020;-79
2024/03/29 04:28:40;;;;;;;2.85;0.55;;;;;;;;;;5039746;28;20028;-79
2024/03/29 04:31:05;;;;;;;2.75;0.50;;;;;;;;;;5058915;28;20024;-79
2024/03/29 04:33:30;;;;;;;1.48;0.40;;;;;;;;;;5040004;28;20060;-78
2024/03/29 04:36:01;;;;;;;1.50;0.50;;;;;;;;;;5038058;28;20039;-80
2024/03/29 04:38:27;;;;;;;2.17;0.50;;;;;;;;;;5036571;28;20025;-78
2024/03/29 04:40:54;;;;;;;2.83;0.60;;;;;;;;;;5057191;28;20045;-79
2024/03/29 04:43:22;;;;;;;2.15;0.50;;;;;;;;;;5056226;28;20029;-79
2024/03/29 04:45:47;;;;;;;2.28;0.60;;;;;;;;;;5030959;28;20047;-79
2024/03/29 04:48:13;;;;;;;3.80;0.80;;;;;;;;;;5040969;28;20584;-79
2024/03/29 04:50:39;;;;;;;2.92;0.60;;;;;;;;;;5038973;28;20471;-80
2024/03/29 04:53:04;;;;;;;3.42;0.55;;;;;;;;;;5038567;28;20029;-79
2024/03/29 04:55:30;;;;;;;2.13;0.50;;;;;;;;;;5039722;28;20112;-79
2024/03/29 04:57:55;;;;;;;0.80;0.40;;;;;;;;;;5040725;28;21873;-79
2024/03/29 05:00:22;;;;;;;1.65;0.52;;;;;;;;;;5053483;28;20033;-79
2024/03/29 05:02:47;;;;;;;1.42;0.50;;;;;;;;;;5041299;28;20036;-81
2024/03/29 05:05:13;;;;;;;1.90;0.60;;;;;;;;;;5043040;28;20025;-79
2024/03/29 05:07:39;;;;;;;3.80;0.77;;;;;;;;;;5053117;28;20122;-79
2024/03/29 05:10:06;;;;;;;1.17;0.50;;;;;;;;;;5063303;28;20476;-79
2024/03/29 05:12:32;;;;;;;0.98;0.55;;;;;;;;;;5038530;28;20516;-79
2024/03/29 05:14:58;;;;;;;2.08;0.47;;;;;;;;;;5040894;28;20045;-79
2024/03/29 05:17:26;;;;;;;4.03;0.60;;;;;;;;;;5027689;28;20543;-81
2024/03/29 05:19:53;;;;;;;1.63;0.47;;;;;;;;;;5042488;28;20159;-82
2024/03/29 05:22:18;;;;;;;1.60;0.50;;;;;;;;;;5062937;28;20033;-82
2024/03/29 05:24:44;;;;;;;4.95;0.70;;;;;;;;;;5041572;28;20055;-81
2024/03/29 05:27:11;;;;;;;2.22;0.70;;;;;;;;;;5037465;28;20025;-82
2024/03/29 05:29:37;;;;;;;1.75;0.52;;;;;;;;;;5041469;28;20495;-80
2024/03/29 05:32:04;;;;;;;1.20;0.40;;;;;;;;;;5038838;28;20467;-80
2024/03/29 05:34:29;;;;;;;1.83;0.50;;;;;;;;;;5042087;28;20082;-80
2024/03/29 05:36:56;;;;;;;1.00;0.40;;;;;;;;;;5054351;28;20477;-80
2024/03/29 05:39:21;;;;;;;1.67;0.30;;;;;;;;;;5039161;28;20408;-79
2024/03/29 05:41:47;;;;;;;0.93;0.40;;;;;;;;;;5035620;28;20031;-80
2024/03/29 05:44:14;;;;;;;1.40;0.40;;;;;;;;;;5037373;28;20032;-80
2024/03/29 05:46:41;;;;;;;2.20;0.55;;;;;;;;;;5039111;28;20478;-80
2024/03/29 05:49:07;;;;;;;1.27;0.35;;;;;;;;;;5037782;28;20021;-80
2024/03/29 05:51:33;;;;;;;2.88;0.70;;;;;;;;;;5028420;28;20039;-82
2024/03/29 05:53:59;;;;;;;2.05;0.40;;;;;;;;;;5056019;28;20033;-82
2024/03/29 05:56:28;;;;;;;1.00;0.43;;;;;;;;;;5022737;28;21296;-81
2024/03/29 05:58:53;;;;;;;1.02;0.47;;;;;;;;;;5037027;28;20078;-81
2024/03/29 06:01:18;;;;;;;1.35;0.40;;;;;;;;;;5053889;28;20025;-79
2024/03/29 06:03:47;;;;;;;1.08;0.40;;;;;;;;;;5036699;28;20056;-80
2024/03/29 06:06:17;;;;;;;3.90;0.50;;;;;;;;;;5026193;28;20091;-80
2024/03/29 06:08:45;;;;;;;2.08;0.45;;;;;;;;;;5033273;28;20025;-79
2024/03/29 06:11:10;;;;;;;2.55;0.57;;;;;;;;;;5027782;28;20024;-84
2024/03/29 06:19:06;;;;;;;2.47;0.60;;;;;;;;;;5053525;28;20100;-80
2024/03/29 06:21:38;;;;;;;1.25;0.47;;;;;;;;;;5033310;28;20515;-79
2024/03/29 06:24:12;;;;;;;2.30;0.57;;;;;;;;;;5017516;28;20032;-80
2024/03/29 06:26:39;;;;;;;1.55;0.50;;;;;;;;;;5030019;28;20036;-80
2024/03/29 06:29:10;;;;;;;1.90;0.60;;;;;;;;;;5054103;28;20031;-80
2024/03/29 06:31:39;;;;;;;2.53;0.70;;;;;;;;;;5034698;28;20082;-80
2024/03/29 06:34:05;;;;;;;1.85;0.65;;;;;;;;;;5025685;28;20045;-80
2024/03/29 06:36:31;;;;;;;2.45;0.43;;;;;;;;;;5017262;28;20028;-79
2024/03/29 06:38:56;;;;;;;1.30;0.70;;;;;;;;;;5051153;28;20029;-79
2024/03/29 06:41:22;;;;;;;1.15;0.55;;;;;;;;;;5054264;28;20028;-80
2024/03/29 06:43:47;;;;;;;2.53;0.65;;;;;;;;;;5034242;28;20060;-81
2024/03/29 06:46:14;;;;;;;2.10;0.65;;;;;;;;;;5050772;28;20029;-81
2024/03/29 06:48:42;;;;;;;3.13;0.82;;;;;;;;;;5032128;28;20033;-81
2024/03/29 06:51:07;;;;;;;1.73;0.60;;;;;;;;;;5032812;28;20032;-81
2024/03/29 06:53:33;;;;;;;2.03;0.80;;;;;;;;;;5054319;28;20102;-82
2024/03/29 06:56:00;;;;;;;2.35;0.60;;;;;;;;;;5049568;28;20361;-81
2024/03/29 06:58:26;;;;;;;1.00;0.55;;;;;;;;;;5038522;28;20484;-81
2024/03/29 07:00:58;;;;;;;2.65;0.70;;;;;;;;;;5025656;28;20031;-80
2024/03/29 07:03:27;;;;;;;1.45;0.60;;;;;;;;;;5019696;28;20036;-80
2024/03/29 07:05:52;;;;;;;1.05;0.57;;;;;;;;;;5042538;28;20067;-79
2024/03/29 07:08:18;;;;;;;1.10;0.57;;;;;;;;;;5035711;28;20025;-79
2024/03/29 07:10:43;;;;;;;1.65;0.70;;;;;;;;;;5034608;28;20111;-84
2024/03/29 07:13:10;;;;;;;3.83;0.60;;;;;;;;;;5035325;28;20025;-80
2024/03/29 07:15:36;;;;;;;1.77;0.50;;;;;;;;;;5025249;28;20033;-80
2024/03/29 07:18:05;;;;;;;1.25;0.55;;;;;;;;;;5036907;28;20025;-80
2024/03/29 07:20:30;;;;;;;1.33;0.52;;;;;;;;;;5018160;28;20033;-84
2024/03/29 07:22:56;;;;;;;1.73;0.70;;;;;;;;;;5032690;28;20083;-83
2024/03/29 07:25:26;;;;;;;2.65;0.50;;;;;;;;;;5033517;28;20545;-84
2024/03/29 07:27:51;;;;;;;3.22;0.60;;;;;;;;;;5032695;28;20032;-85
2024/03/29 07:30:17;;;;;;;1.33;0.70;;;;;;;;;;5034727;28;20029;-84
2024/03/29 07:32:43;;;;;;;2.20;0.68;;;;;;;;;;5052507;28;20017;-79
2024/03/29 07:35:08;;;;;;;2.13;0.63;;;;;;;;;;5052482;28;20020;-80
2024/03/29 07:37:34;;;;;;;1.88;0.60;;;;;;;;;;5058055;28;20020;-79
2024/03/29 07:40:00;;;;;;;2.60;0.60;;;;;;;;;;5035128;28;20468;-79
2024/03/29 07:42:36;;;;;;;1.92;0.70;;;;;;;;;;5041256;28;20055;-80
2024/03/29 07:45:02;;;;;;;2.13;0.75;;;;;;;;;;5024783;28;20395;-80
2024/03/29 07:47:29;;;;;;;1.35;0.60;;;;;;;;;;5051780;28;20060;-80
2024/03/29 07:49:55;;;;;;;1.98;0.68;;;;;;;;;;5052867;28;20025;-79
2024/03/29 07:52:21;;;;;;;2.47;0.70;;;;;;;;;;5052970;28;20082;-79
2024/03/29 07:55:01;;;;;;;1.23;0.63;;;;;;;;;;5025419;28;20167;-79
2024/03/29 07:57:31;;;;;;;1.45;0.70;;;;;;;;;;5034932;28;20353;-80
2024/03/29 07:59:56;;;;;;;2.50;0.60;;;;;;;;;;5035003;28;20025;-79
2024/03/29 08:02:22;;;;;;;1.63;0.80;;;;;;;;;;5033563;28;20061;-80
2024/03/29 08:04:47;;;;;;;2.28;0.82;;;;;;;;;;5034610;28;20119;-81
2024/03/29 08:07:15;;;;;;;3.08;0.98;;;;;;;;;;5051422;28;20032;-81
2024/03/29 08:09:41;;;;;;;3.45;0.93;;;;;;;;;;5032807;28;20025;-81
2024/03/29 08:12:06;;;;;;;1.27;0.80;;;;;;;;;;5038353;28;20039;-81
2024/03/29 08:14:32;;;;;;;1.60;0.70;;;;;;;;;;5035432;28;20029;-81
2024/03/29 08:17:04;;;;;;;3.80;0.88;;;;;;;;;;5031326;28;20016;-81
2024/03/29 08:19:29;;;;;;;1.52;0.70;;;;;;;;;;5032825;28;21209;-81
2024/03/29 08:21:55;;;;;;;2.33;0.80;;;;;;;;;;5024554;28;20167;-80
2024/03/29 08:24:20;;;;;;;2.20;0.90;;;;;;;;;;5045033;28;20153;-80
2024/03/29 08:26:46;;;;;;;3.25;0.90;;;;;;;;;;5022691;28;20035;-80
2024/03/29 08:29:12;;;;;;;1.20;0.70;;;;;;;;;;5034415;28;20024;-80
2024/03/29 08:31:43;;;;;;;2.28;0.90;;;;;;;;;;5051247;28;20106;-80
2024/03/29 08:34:13;;;;;;;2.05;0.80;;;;;;;;;;5018409;28;20025;-80
2024/03/29 08:36:56;;;;;;;2.17;0.90;;;;;;;;;;5054615;28;20068;-80
2024/03/29 08:39:21;;;;;;;2.75;1.00;;;;;;;;;;5037273;28;20085;-80
2024/03/29 08:41:47;;;;;;;2.65;0.90;;;;;;;;;;5045835;28;20040;-80
2024/03/29 08:44:12;;;;;;;2.88;0.70;;;;;;;;;;5034891;28;20469;-80
2024/03/29 08:46:38;;;;;;;2.67;1.02;;;;;;;;;;5036504;28;20036;-80
2024/03/29 08:49:04;;;;;;;2.28;0.80;;;;;;;;;;5019933;28;20064;-80
2024/03/29 08:51:29;;;;;;;1.88;0.90;;;;;;;;;;5037643;28;20032;-80
2024/03/29 08:53:57;;;;;;;0.80;0.63;;;;;;;;;;5039070;28;20021;-80
2024/03/29 08:56:23;;;;;;;1.83;0.95;;;;;;;;;;5042996;28;20538;-80
2024/03/29 08:58:49;;;;;;;2.63;0.85;;;;;;;;;;5045254;28;20033;-79
2024/03/29 09:01:15;;;;;;;1.88;1.00;;;;;;;;;;5052702;28;20025;-80
2024/03/29 09:03:44;;;;;;;2.55;0.80;;;;;;;;;;5040023;28;20029;-80
2024/03/29 09:06:09;;;;;;;1.27;0.70;;;;;;;;;;5043195;28;20389;-80
2024/03/29 09:08:37;;;;;;;2.17;0.80;;;;;;;;;;5043052;28;20556;-80
2024/03/29 09:11:03;;;;;;;3.58;1.02;;;;;;;;;;5031713;28;20025;-79
2024/03/29 09:13:31;;;;;;;2.17;1.10;;;;;;;;;;5036565;28;20491;-80
2024/03/29 09:15:57;;;;;;;1.77;1.05;;;;;;;;;;5042648;28;20025;-80
2024/03/29 09:18:26;;;;;;;5.10;1.35;;;;;;;;;;5036891;28;20539;-80
2024/03/29 09:21:01;;;;;;;3.25;1.02;;;;;;;;;;5039488;28;20079;-79
2024/03/29 09:23:30;;;;;;;3.22;1.30;;;;;;;;;;5042455;28;20036;-79
2024/03/29 09:25:57;;;;;;;2.72;1.42;;;;;;;;;;5034813;28;20029;-80
2024/03/29 09:28:23;;;;;;;3.40;1.20;;;;;;;;;;5050647;28;20379;-79
2024/03/29 09:30:49;;;;;;;2.03;1.00;;;;;;;;;;5040037;28;20040;-83
2024/03/29 09:33:14;;;;;;;2.88;1.00;;;;;;;;;;5045030;28;20021;-83
2024/03/29 09:35:40;;;;;;;3.55;1.25;;;;;;;;;;5038698;28;20106;-83
2024/03/29 09:38:05;;;;;;;3.55;1.30;;;;;;;;;;5042282;28;20029;-83
2024/03/29 09:40:34;;;;;;;3.83;1.30;;;;;;;;;;5060054;28;20028;-83
2024/03/29 09:43:03;;;;;;;3.65;1.48;;;;;;;;;;5042276;28;20027;-83
2024/03/29 09:45:38;;;;;;;4.20;1.85;;;;;;;;;;5040974;28;20479;-83
2024/03/29 09:48:04;;;;;;;3.65;1.88;;;;;;;;;;5019055;28;20082;-83
2024/03/29 09:50:37;;;;;;;4.95;1.73;;;;;;;;;;5044128;28;20115;-83
2024/03/29 09:53:05;;;;;;;4.25;1.90;;;;;;;;;;5042261;28;20501;-82
2024/03/29 09:55:30;;;;;;;2.92;1.60;;;;;;;;;;5043968;28;20044;-83
2024/03/29 09:57:57;;;;;;;5.82;2.50;;;;;;;;;;5038331;28;20122;-83
2024/03/29 10:00:24;;;;;;;6.07;2.70;;;;;;;;;;5043804;28;20442;-83
2024/03/29 10:02:53;;;;;;;4.68;2.78;;;;;;;;;;5040885;28;20479;-83
2024/03/29 10:05:20;;;;;;;5.32;2.92;;;;;;;;;;5032411;28;20396;-83
2024/03/29 10:07:49;;;;;;;4.38;2.53;;;;;;;;;;5042762;28;20045;-83
2024/03/29 10:10:15;;;;;;;4.30;2.38;;;;;;;;;;5062076;28;20357;-83
2024/03/29 10:12:41;;;;;;;4.57;2.30;;;;;;;;;;5061736;28;20032;-83
2024/03/29 10:15:14;;;;;;;3.88;2.38;;;;;;;;;;5051270;28;20032;-83
2024/03/29 10:17:39;;;;;;;;;;;;;;;;;;5041935;28;20025;-83
2024/03/29 10:20:05;;;;;;;3.50;2.10;;;;;;;;;;5038855;28;19919;-83
2024/03/29 10:22:40;;;;;;;4.47;2.10;;;;;;;;;;5041519;28;20020;-82
2024/03/29 10:25:06;;;;;;;4.30;2.15;;;;;;;;;;5032097;28;20427;-83
2024/03/29 10:27:31;;;;;;;3.80;2.10;;;;;;;;;;5040513;28;20093;-82
2024/03/29 10:29:57;;;;;;;4.05;2.22;;;;;;;;;;5038596;28;20024;-83
2024/03/29 10:32:22;;;;;;;5.03;2.65;;;;;;;;;;5035971;28;20037;-83
2024/03/29 10:34:51;;;;;;;5.63;2.80;;;;;;;;;;5053740;28;20500;-83
2024/03/29 10:37:23;;;;;;;6.75;3.10;;;;;;;;;;5037460;28;20067;-83
2024/03/29 10:39:50;;;;;;;5.00;3.42;;;;;;;;;;5056158;28;20025;-82
2024/03/29 10:42:16;;;;;;;5.00;2.80;;;;;;;;;;5034700;28;20476;-83
2024/03/29 10:44:42;;;;;;;7.57;2.80;;;;;;;;;;5033647;28;20036;-83
2024/03/29 10:47:07;;;;;;;4.78;2.60;;;;;;;;;;5040852;28;20037;-83
2024/03/29 10:49:34;;;;;;;4.00;2.40;;;;;;;;;;5034932;28;20083;-83
2024/03/29 10:52:02;;;;;;;3.63;1.90;;;;;;;;;;5038385;28;20025;-79
2024/03/29 10:54:29;;;;;;;6.30;2.95;;;;;;;;;;5052354;28;20080;-80
2024/03/29 10:57:03;;;;;;;5.78;2.10;;;;;;;;;;5055159;28;20573;-79
2024/03/29 11:00:11;;;;;;;3.65;1.80;;;;;;;;;;5056055;28;20029;-80
2024/03/29 11:02:53;;;;;;;9.60;2.22;;;;;;;;;;5037252;28;20040;-80
2024/03/29 11:05:21;;;;;;;3.58;1.67;;;;;;;;;;5031300;28;20116;-80
2024/03/29 11:07:48;;;;;;;3.50;1.80;;;;;;;;;;5030552;28;20400;-80
2024/03/29 11:10:35;;;;;;;3.85;1.80;;;;;;;;;;5051294;28;20048;-80
2024/03/29 11:13:24;;;;;;;3.33;1.70;;;;;;;;;;5046238;28;20043;-80
2024/03/29 11:15:50;;;;;;;3.50;1.55;;;;;;;;;;5050014;28;20021;-79
2024/03/29 11:18:18;;;;;;;4.05;1.60;;;;;;;;;;5035191;28;20396;-80
2024/03/29 11:20:53;;;;;;;3.80;1.27;;;;;;;;;;5038267;28;20124;-80
2024/03/29 11:23:20;;;;;;;2.50;1.23;;;;;;;;;;5037463;28;20541;-80
2024/03/29 11:25:53;;;;;;;1.20;1.00;;;;;;;;;;5043730;28;20036;-80
2024/03/29 11:28:35;;;;;;;3.40;1.17;;;;;;;;;;5033342;28;20552;-80
2024/03/29 11:31:09;;;;;;;3.88;1.20;;;;;;;;;;5021342;28;20029;-79
2024/03/29 11:33:48;;;;;;;1.60;1.00;;;;;;;;;;5028058;28;20427;-80
2024/03/29 11:36:21;;;;;;;2.20;0.90;;;;;;;;;;5031150;28;20021;-80
2024/03/29 11:38:47;;;;;;;;;;;;;;;;;;5058050;28;20058;-80
2024/03/29 11:41:14;;;;;;;1.48;0.90;;;;;;;;;;5033455;28;19919;-80
2024/03/29 11:43:41;;;;;;;3.13;1.02;;;;;;;;;;5031333;28;20472;-79
2024/03/29 11:46:09;;;;;;;2.40;1.00;;;;;;;;;;5042913;28;20115;-80
2024/03/29 11:48:35;;;;;;;2.22;1.20;;;;;;;;;;5031290;28;20043;-83
2024/03/29 11:51:03;;;;;;;2.03;1.10;;;;;;;;;;5055902;28;20494;-82
2024/03/29 11:53:29;;;;;;;2.58;1.02;;;;;;;;;;5041919;28;20536;-83
2024/03/29 11:55:57;;;;;;;2.97;1.17;;;;;;;;;;5041172;28;20365;-83
2024/03/29 11:58:23;;;;;;;3.60;1.15;;;;;;;;;;5044060;28;20056;-81
2024/03/29 12:00:53;;;;;;;2.17;1.10;;;;;;;;;;5040531;28;20028;-78
2024/03/29 12:03:21;;;;;;;3.28;1.10;;;;;;;;;;5047681;28;20025;-79
2024/03/29 12:05:48;;;;;;;1.83;1.00;;;;;;;;;;5032454;28;20029;-79
2024/03/29 12:08:14;;;;;;;2.33;0.95;;;;;;;;;;5035213;28;20021;-79
2024/03/29 12:10:40;;;;;;;3.63;1.10;;;;;;;;;;5051238;28;20025;-79
2024/03/29 12:13:06;;;;;;;2.05;0.98;;;;;;;;;;5031409;28;20392;-79
2024/03/29 12:15:32;;;;;;;2.42;1.10;;;;;;;;;;5034133;28;20025;-79
2024/03/29 12:18:02;;;;;;;1.88;1.02;;;;;;;;;;5037735;28;20025;-80
2024/03/29 12:20:38;;;;;;;2.90;1.02;;;;;;;;;;5050365;28;20392;-79
2024/03/29 12:23:06;;;;;;;2.67;1.05;;;;;;;;;;5041725;28;20036;-79
2024/03/29 12:25:33;;;;;;;2.75;1.10;;;;;;;;;;5056794;28;20040;-80
2024/03/29 12:28:00;;;;;;;3.08;1.08;;;;;;;;;;5042892;28;20025;-79
2024/03/29 12:30:28;;;;;;;1.98;1.05;;;;;;;;;;5040146;28;20028;-79
2024/03/29 12:33:20;;;;;;;3.22;1.20;;;;;;;;;;5039863;28;21441;-79
2024/03/29 12:35:48;;;;;;;2.13;1.05;;;;;;;;;;5031426;28;20396;-80
2024/03/29 12:38:16;;;;;;;2.20;1.00;;;;;;;;;;5030192;28;20032;-79
2024/03/29 12:40:43;;;;;;;2.10;1.10;;;;;;;;;;5051725;28;20466;-79
2024/03/29 12:43:09;;;;;;;2.17;1.00;;;;;;;;;;5043711;28;20025;-79
2024/03/29 12:45:36;;;;;;;2.15;0.80;;;;;;;;;;5047887;28;20174;-79
2024/03/29 12:48:02;;;;;;;1.17;0.80;;;;;;;;;;5042104;28;20373;-79
2024/03/29 12:50:34;;;;;;;1.48;0.98;;;;;;;;;;5054453;28;20083;-79
2024/03/29 12:53:07;;;;;;;2.10;0.85;;;;;;;;;;5036777;28;20040;-79
2024/03/29 12:55:36;;;;;;;1.75;1.02;;;;;;;;;;5035892;28;20017;-79
2024/03/29 12:58:04;;;;;;;1.65;0.70;;;;;;;;;;5032886;28;20024;-79
2024/03/29 13:00:33;;;;;;;1.27;0.80;;;;;;;;;;5034830;28;20083;-78
2024/03/29 13:03:00;;;;;;;1.67;0.70;;;;;;;;;;5033410;28;20033;-78
2024/03/29 13:05:27;;;;;;;1.90;0.82;;;;;;;;;;5021977;28;20040;-78
2024/03/29 13:07:53;;;;;;;2.13;0.90;;;;;;;;;;5050024;28;20025;-78
2024/03/29 13:10:21;;;;;;;2.17;1.00;;;;;;;;;;5035249;28;20052;-78
2024/03/29 13:12:49;;;;;;;1.83;1.00;;;;;;;;;;5040379;28;20033;-83
2024/03/29 13:15:24;;;;;;;1.08;0.60;;;;;;;;;;5052694;28;20472;-83
2024/03/29 13:17:51;;;;;;;1.60;0.70;;;;;;;;;;5040744;28;20024;-83
2024/03/29 13:20:17;;;;;;;1.58;0.70;;;;;;;;;;5061905;28;20496;-83
2024/03/29 13:22:48;;;;;;;1.15;0.70;;;;;;;;;;5036936;28;20400;-83
2024/03/29 13:25:15;;;;;;;2.03;0.60;;;;;;;;;;5020739;28;20067;-80
2024/03/29 13:27:41;;;;;;;1.30;0.90;;;;;;;;;;5038205;28;20411;-83
2024/03/29 13:30:11;;;;;;;2.15;0.85;;;;;;;;;;5033670;28;20040;-81
2024/03/29 13:32:38;;;;;;;1.75;0.80;;;;;;;;;;5036443;28;20055;-82
2024/03/29 13:35:09;;;;;;;0.98;0.70;;;;;;;;;;5038414;28;20025;-82
2024/03/29 13:37:38;;;;;;;1.00;0.63;;;;;;;;;;5059961;28;20075;-82
2024/03/29 13:40:06;;;;;;;1.60;0.88;;;;;;;;;;5049041;28;20467;-83
2024/03/29 13:42:31;;;;;;;1.35;0.80;;;;;;;;;;5057953;28;20024;-83
2024/03/29 13:44:57;;;;;;;1.50;0.98;;;;;;;;;;5050059;28;20029;-83
2024/03/29 13:47:22;;;;;;;1.77;0.98;;;;;;;;;;5069782;28;20031;-83
2024/03/29 13:49:50;;;;;;;1.75;0.88;;;;;;;;;;5055189;28;20391;-83
2024/03/29 13:52:19;;;;;;;1.50;1.00;;;;;;;;;;5060723;28;20547;-83
2024/03/29 13:54:47;;;;;;;2.40;1.02;;;;;;;;;;5044215;28;20574;-83
2024/03/29 13:57:16;;;;;;;1.80;1.00;;;;;;;;;;5067160;28;20032;-81
2024/03/29 13:59:44;;;;;;;2.13;1.00;;;;;;;;;;5057469;28;20033;-83
2024/03/29 14:02:16;;;;;;;2.25;1.08;;;;;;;;;;5035442;28;20480;-83
2024/03/29 14:04:42;;;;;;;2.75;0.98;;;;;;;;;;5031362;28;20484;-82
2024/03/29 14:07:11;;;;;;;2.28;1.17;;;;;;;;;;5060386;28;20469;-82
2024/03/29 14:09:41;;;;;;;1.73;0.95;;;;;;;;;;5041899;28;20512;-79
2024/03/29 14:12:07;;;;;;;1.45;1.10;;;;;;;;;;5053190;28;20028;-79
2024/03/29 14:14:33;;;;;;;2.15;1.30;;;;;;;;;;5040697;28;20036;-79
2024/03/29 14:17:04;;;;;;;1.60;1.00;;;;;;;;;;5059793;28;20103;-79
2024/03/29 14:19:31;;;;;;;1.35;1.10;;;;;;;;;;5049128;28;20063;-79
2024/03/29 14:21:57;;;;;;;3.42;1.05;;;;;;;;;;5054160;28;20054;-82
2024/03/29 14:24:24;;;;;;;2.72;1.13;;;;;;;;;;5061741;28;20024;-80
2024/03/29 14:26:50;;;;;;;1.83;1.02;;;;;;;;;;5033586;28;20437;-82
2024/03/29 14:29:17;;;;;;;1.10;0.90;;;;;;;;;;5047605;28;20130;-82
2024/03/29 14:31:44;;;;;;;2.22;1.20;;;;;;;;;;5051024;28;20028;-83
2024/03/29 14:34:10;;;;;;;1.70;1.15;;;;;;;;;;5043957;28;20028;-83
2024/03/29 14:36:35;;;;;;;1.83;1.02;;;;;;;;;;5035928;28;20024;-78
2024/03/29 14:39:01;;;;;;;1.77;1.00;;;;;;;;;;5055978;28;20454;-78
2024/03/29 14:41:27;;;;;;;1.83;1.10;;;;;;;;;;5042897;28;20024;-79
2024/03/29 14:43:55;;;;;;;1.27;0.95;;;;;;;;;;5046751;28;20420;-79
2024/03/29 14:46:20;;;;;;;1.63;0.90;;;;;;;;;;5058420;28;20035;-79
2024/03/29 14:48:46;;;;;;;1.20;0.90;;;;;;;;;;5044507;28;20025;-80
2024/03/29 14:51:12;;;;;;;2.05;1.10;;;;;;;;;;5049047;28;20016;-79